sensor_id;sensor_type;location;lat;lon;timestamp;P1;durP1;ratioP1;P2;durP2;ratioP2
20022;SDS011;10172;42.054;24.546;2024-02-23T00:01:35;29.67;;;21.33;;
20022;SDS011;10172;42.054;24.546;2024-02-23T00:04:01;35.50;;;21.92;;
20022;SDS011;10172;42.054;24.546;2024-02-23T00:06:27;33.28;;;22.08;;
20022;SDS011;10172;42.054;24.546;2024-02-23T00:08:53;28.23;;;18.30;;
20022;SDS011;10172;42.054;24.546;2024-02-23T00:11:20;28.17;;;18.77;;
20022;SDS011;10172;42.054;24.546;2024-02-23T00:13:45;29.13;;;19.88;;
20022;SDS011;10172;42.054;24.546;2024-02-23T00:16:11;31.83;;;20.27;;
20022;SDS011;10172;42.054;24.546;2024-02-23T00:18:36;29.33;;;20.05;;
20022;SDS011;10172;42.054;24.546;2024-02-23T00:21:02;29.27;;;20.00;;
20022;SDS011;10172;42.054;24.546;2024-02-23T00:23:27;30.20;;;19.38;;
20022;SDS011;10172;42.054;24.546;2024-02-23T00:25:53;40.80;;;22.70;;
20022;SDS011;10172;42.054;24.546;2024-02-23T00:28:19;61.78;;;31.20;;
20022;SDS011;10172;42.054;24.546;2024-02-23T00:30:44;24.27;;;16.75;;
20022;SDS011;10172;42.054;24.546;2024-02-23T00:33:10;16.25;;;11.45;;
20022;SDS011;10172;42.054;24.546;2024-02-23T00:35:35;13.65;;;9.80;;
20022;SDS011;10172;42.054;24.546;2024-02-23T00:38:00;13.77;;;9.82;;
20022;SDS011;10172;42.054;24.546;2024-02-23T00:40:26;15.65;;;9.35;;
20022;SDS011;10172;42.054;24.546;2024-02-23T00:42:51;14.80;;;10.20;;
20022;SDS011;10172;42.054;24.546;2024-02-23T00:45:17;16.38;;;11.00;;
20022;SDS011;10172;42.054;24.546;2024-02-23T00:47:42;14.93;;;9.93;;
20022;SDS011;10172;42.054;24.546;2024-02-23T00:50:08;14.43;;;10.52;;
20022;SDS011;10172;42.054;24.546;2024-02-23T00:52:34;14.50;;;10.65;;
20022;SDS011;10172;42.054;24.546;2024-02-23T00:54:59;14.68;;;9.63;;
20022;SDS011;10172;42.054;24.546;2024-02-23T00:57:25;17.02;;;10.93;;
20022;SDS011;10172;42.054;24.546;2024-02-23T00:59:55;17.83;;;11.50;;
20022;SDS011;10172;42.054;24.546;2024-02-23T01:02:21;21.52;;;14.13;;
20022;SDS011;10172;42.054;24.546;2024-02-23T01:04:47;15.63;;;10.15;;
20022;SDS011;10172;42.054;24.546;2024-02-23T01:07:12;29.38;;;21.42;;
20022;SDS011;10172;42.054;24.546;2024-02-23T01:09:38;17.55;;;11.52;;
20022;SDS011;10172;42.054;24.546;2024-02-23T01:12:03;21.50;;;14.35;;
20022;SDS011;10172;42.054;24.546;2024-02-23T01:14:31;21.65;;;14.80;;
20022;SDS011;10172;42.054;24.546;2024-02-23T01:16:57;21.23;;;13.90;;
20022;SDS011;10172;42.054;24.546;2024-02-23T01:19:22;20.20;;;14.27;;
20022;SDS011;10172;42.054;24.546;2024-02-23T01:21:48;25.70;;;13.90;;
20022;SDS011;10172;42.054;24.546;2024-02-23T01:24:20;24.38;;;16.90;;
20022;SDS011;10172;42.054;24.546;2024-02-23T01:26:46;23.83;;;14.77;;
20022;SDS011;10172;42.054;24.546;2024-02-23T01:29:11;25.23;;;14.52;;
20022;SDS011;10172;42.054;24.546;2024-02-23T01:31:36;20.20;;;14.23;;
20022;SDS011;10172;42.054;24.546;2024-02-23T01:34:03;23.35;;;13.52;;
20022;SDS011;10172;42.054;24.546;2024-02-23T01:36:28;20.05;;;12.20;;
20022;SDS011;10172;42.054;24.546;2024-02-23T01:38:53;19.58;;;14.02;;
20022;SDS011;10172;42.054;24.546;2024-02-23T01:41:19;19.42;;;12.10;;
20022;SDS011;10172;42.054;24.546;2024-02-23T01:43:45;20.02;;;10.85;;
20022;SDS011;10172;42.054;24.546;2024-02-23T01:46:10;19.75;;;13.40;;
20022;SDS011;10172;42.054;24.546;2024-02-23T01:48:35;21.40;;;13.18;;
20022;SDS011;10172;42.054;24.546;2024-02-23T01:51:01;21.17;;;14.02;;
20022;SDS011;10172;42.054;24.546;2024-02-23T01:53:26;16.33;;;10.90;;
20022;SDS011;10172;42.054;24.546;2024-02-23T01:55:53;17.23;;;11.75;;
20022;SDS011;10172;42.054;24.546;2024-02-23T01:58:19;75.47;;;36.00;;
20022;SDS011;10172;42.054;24.546;2024-02-23T02:00:44;30.85;;;18.98;;
20022;SDS011;10172;42.054;24.546;2024-02-23T02:03:10;20.35;;;14.63;;
20022;SDS011;10172;42.054;24.546;2024-02-23T02:05:36;16.85;;;12.23;;
20022;SDS011;10172;42.054;24.546;2024-02-23T02:08:02;16.48;;;11.68;;
20022;SDS011;10172;42.054;24.546;2024-02-23T02:10:29;18.35;;;12.60;;
20022;SDS011;10172;42.054;24.546;2024-02-23T02:12:54;19.15;;;11.85;;
20022;SDS011;10172;42.054;24.546;2024-02-23T02:15:20;18.25;;;11.95;;
20022;SDS011;10172;42.054;24.546;2024-02-23T02:17:47;18.88;;;12.00;;
20022;SDS011;10172;42.054;24.546;2024-02-23T02:20:12;19.13;;;12.02;;
20022;SDS011;10172;42.054;24.546;2024-02-23T02:22:38;21.70;;;12.73;;
20022;SDS011;10172;42.054;24.546;2024-02-23T02:25:05;17.67;;;10.40;;
20022;SDS011;10172;42.054;24.546;2024-02-23T02:27:30;17.85;;;12.40;;
20022;SDS011;10172;42.054;24.546;2024-02-23T02:29:56;16.67;;;11.57;;
20022;SDS011;10172;42.054;24.546;2024-02-23T02:32:22;17.42;;;11.15;;
20022;SDS011;10172;42.054;24.546;2024-02-23T02:34:48;26.70;;;14.88;;
20022;SDS011;10172;42.054;24.546;2024-02-23T02:37:13;21.33;;;12.05;;
20022;SDS011;10172;42.054;24.546;2024-02-23T02:39:38;24.30;;;14.10;;
20022;SDS011;10172;42.054;24.546;2024-02-23T02:42:04;19.25;;;13.20;;
20022;SDS011;10172;42.054;24.546;2024-02-23T02:44:30;17.70;;;11.85;;
20022;SDS011;10172;42.054;24.546;2024-02-23T02:46:58;19.35;;;13.02;;
20022;SDS011;10172;42.054;24.546;2024-02-23T02:49:24;18.42;;;12.57;;
20022;SDS011;10172;42.054;24.546;2024-02-23T02:51:49;19.55;;;12.10;;
20022;SDS011;10172;42.054;24.546;2024-02-23T02:54:15;17.35;;;11.43;;
20022;SDS011;10172;42.054;24.546;2024-02-23T02:56:44;16.80;;;11.50;;
20022;SDS011;10172;42.054;24.546;2024-02-23T02:59:11;18.38;;;11.88;;
20022;SDS011;10172;42.054;24.546;2024-02-23T03:01:37;22.45;;;13.35;;
20022;SDS011;10172;42.054;24.546;2024-02-23T03:04:02;18.70;;;12.68;;
20022;SDS011;10172;42.054;24.546;2024-02-23T03:06:28;21.35;;;12.70;;
20022;SDS011;10172;42.054;24.546;2024-02-23T03:08:53;18.13;;;11.88;;
20022;SDS011;10172;42.054;24.546;2024-02-23T03:11:18;15.73;;;9.98;;
20022;SDS011;10172;42.054;24.546;2024-02-23T03:13:44;16.60;;;11.50;;
20022;SDS011;10172;42.054;24.546;2024-02-23T03:16:18;16.58;;;10.68;;
20022;SDS011;10172;42.054;24.546;2024-02-23T03:18:45;17.75;;;11.77;;
20022;SDS011;10172;42.054;24.546;2024-02-23T03:21:12;18.88;;;12.13;;
20022;SDS011;10172;42.054;24.546;2024-02-23T03:23:39;17.00;;;12.50;;
20022;SDS011;10172;42.054;24.546;2024-02-23T03:26:06;18.48;;;12.05;;
20022;SDS011;10172;42.054;24.546;2024-02-23T03:28:32;21.35;;;13.65;;
20022;SDS011;10172;42.054;24.546;2024-02-23T03:30:57;18.33;;;12.35;;
20022;SDS011;10172;42.054;24.546;2024-02-23T03:33:22;18.98;;;13.10;;
20022;SDS011;10172;42.054;24.546;2024-02-23T03:35:48;20.25;;;13.30;;
20022;SDS011;10172;42.054;24.546;2024-02-23T03:38:13;19.08;;;13.50;;
20022;SDS011;10172;42.054;24.546;2024-02-23T03:40:38;21.08;;;13.23;;
20022;SDS011;10172;42.054;24.546;2024-02-23T03:43:04;22.77;;;14.23;;
20022;SDS011;10172;42.054;24.546;2024-02-23T03:45:30;20.30;;;12.88;;
20022;SDS011;10172;42.054;24.546;2024-02-23T03:47:56;21.40;;;14.32;;
20022;SDS011;10172;42.054;24.546;2024-02-23T03:50:21;20.08;;;12.70;;
20022;SDS011;10172;42.054;24.546;2024-02-23T03:52:47;19.42;;;12.52;;
20022;SDS011;10172;42.054;24.546;2024-02-23T03:55:12;23.67;;;14.15;;
20022;SDS011;10172;42.054;24.546;2024-02-23T03:57:38;23.75;;;14.48;;
20022;SDS011;10172;42.054;24.546;2024-02-23T04:00:03;17.70;;;11.88;;
20022;SDS011;10172;42.054;24.546;2024-02-23T04:02:31;18.38;;;11.63;;
20022;SDS011;10172;42.054;24.546;2024-02-23T04:04:56;19.50;;;12.35;;
20022;SDS011;10172;42.054;24.546;2024-02-23T04:07:22;19.55;;;12.63;;
20022;SDS011;10172;42.054;24.546;2024-02-23T04:09:47;17.42;;;12.93;;
20022;SDS011;10172;42.054;24.546;2024-02-23T04:12:20;17.27;;;13.40;;
20022;SDS011;10172;42.054;24.546;2024-02-23T04:14:46;21.52;;;14.63;;
20022;SDS011;10172;42.054;24.546;2024-02-23T04:17:12;15.60;;;10.50;;
20022;SDS011;10172;42.054;24.546;2024-02-23T04:19:37;20.58;;;13.60;;
20022;SDS011;10172;42.054;24.546;2024-02-23T04:22:03;17.23;;;11.60;;
20022;SDS011;10172;42.054;24.546;2024-02-23T04:24:29;19.00;;;11.40;;
20022;SDS011;10172;42.054;24.546;2024-02-23T04:26:54;19.63;;;10.57;;
20022;SDS011;10172;42.054;24.546;2024-02-23T04:29:20;18.75;;;11.23;;
20022;SDS011;10172;42.054;24.546;2024-02-23T04:31:45;38.30;;;28.77;;
20022;SDS011;10172;42.054;24.546;2024-02-23T04:34:10;20.15;;;12.32;;
20022;SDS011;10172;42.054;24.546;2024-02-23T04:36:36;20.60;;;12.63;;
20022;SDS011;10172;42.054;24.546;2024-02-23T04:39:01;19.63;;;13.13;;
20022;SDS011;10172;42.054;24.546;2024-02-23T04:41:27;20.45;;;13.27;;
20022;SDS011;10172;42.054;24.546;2024-02-23T04:43:53;29.80;;;18.27;;
20022;SDS011;10172;42.054;24.546;2024-02-23T04:46:23;19.95;;;13.77;;
20022;SDS011;10172;42.054;24.546;2024-02-23T04:48:49;17.50;;;11.93;;
20022;SDS011;10172;42.054;24.546;2024-02-23T04:51:14;19.92;;;13.55;;
20022;SDS011;10172;42.054;24.546;2024-02-23T04:53:39;21.13;;;14.70;;
20022;SDS011;10172;42.054;24.546;2024-02-23T04:56:05;22.85;;;13.35;;
20022;SDS011;10172;42.054;24.546;2024-02-23T04:58:30;20.33;;;13.38;;
20022;SDS011;10172;42.054;24.546;2024-02-23T05:00:56;21.27;;;14.27;;
20022;SDS011;10172;42.054;24.546;2024-02-23T05:03:21;22.23;;;14.45;;
20022;SDS011;10172;42.054;24.546;2024-02-23T05:05:47;25.85;;;15.93;;
20022;SDS011;10172;42.054;24.546;2024-02-23T05:08:14;25.17;;;16.13;;
20022;SDS011;10172;42.054;24.546;2024-02-23T05:10:40;21.50;;;13.73;;
20022;SDS011;10172;42.054;24.546;2024-02-23T05:13:05;21.70;;;14.68;;
20022;SDS011;10172;42.054;24.546;2024-02-23T05:15:30;23.80;;;15.48;;
20022;SDS011;10172;42.054;24.546;2024-02-23T05:17:56;25.60;;;15.50;;
20022;SDS011;10172;42.054;24.546;2024-02-23T05:20:21;21.48;;;13.57;;
20022;SDS011;10172;42.054;24.546;2024-02-23T05:22:47;20.30;;;12.35;;
20022;SDS011;10172;42.054;24.546;2024-02-23T05:25:12;21.40;;;14.43;;
20022;SDS011;10172;42.054;24.546;2024-02-23T05:27:38;24.52;;;15.13;;
20022;SDS011;10172;42.054;24.546;2024-02-23T05:30:03;20.45;;;14.55;;
20022;SDS011;10172;42.054;24.546;2024-02-23T05:32:29;24.77;;;15.45;;
20022;SDS011;10172;42.054;24.546;2024-02-23T05:34:55;24.95;;;14.93;;
20022;SDS011;10172;42.054;24.546;2024-02-23T05:37:21;23.48;;;15.32;;
20022;SDS011;10172;42.054;24.546;2024-02-23T05:39:47;23.95;;;14.20;;
20022;SDS011;10172;42.054;24.546;2024-02-23T05:42:12;23.92;;;14.10;;
20022;SDS011;10172;42.054;24.546;2024-02-23T05:44:38;26.75;;;18.65;;
20022;SDS011;10172;42.054;24.546;2024-02-23T05:47:04;30.50;;;18.92;;
20022;SDS011;10172;42.054;24.546;2024-02-23T05:49:30;25.52;;;16.13;;
20022;SDS011;10172;42.054;24.546;2024-02-23T05:51:55;24.63;;;17.10;;
20022;SDS011;10172;42.054;24.546;2024-02-23T05:54:21;26.92;;;17.13;;
20022;SDS011;10172;42.054;24.546;2024-02-23T05:56:46;28.55;;;17.40;;
20022;SDS011;10172;42.054;24.546;2024-02-23T05:59:11;29.30;;;18.35;;
20022;SDS011;10172;42.054;24.546;2024-02-23T06:01:37;27.88;;;17.73;;
20022;SDS011;10172;42.054;24.546;2024-02-23T06:04:02;26.73;;;17.33;;
20022;SDS011;10172;42.054;24.546;2024-02-23T06:06:28;27.70;;;18.85;;
20022;SDS011;10172;42.054;24.546;2024-02-23T06:08:53;32.13;;;19.77;;
20022;SDS011;10172;42.054;24.546;2024-02-23T06:11:19;37.30;;;20.98;;
20022;SDS011;10172;42.054;24.546;2024-02-23T06:13:44;43.03;;;24.23;;
20022;SDS011;10172;42.054;24.546;2024-02-23T06:16:10;38.40;;;23.13;;
20022;SDS011;10172;42.054;24.546;2024-02-23T06:18:39;40.70;;;22.63;;
20022;SDS011;10172;42.054;24.546;2024-02-23T06:21:16;37.47;;;23.30;;
20022;SDS011;10172;42.054;24.546;2024-02-23T06:23:45;38.00;;;23.50;;
20022;SDS011;10172;42.054;24.546;2024-02-23T06:26:11;30.13;;;20.63;;
20022;SDS011;10172;42.054;24.546;2024-02-23T06:28:37;29.42;;;20.73;;
20022;SDS011;10172;42.054;24.546;2024-02-23T06:31:07;33.50;;;21.40;;
20022;SDS011;10172;42.054;24.546;2024-02-23T06:33:33;32.70;;;20.70;;
20022;SDS011;10172;42.054;24.546;2024-02-23T06:35:58;30.42;;;19.83;;
20022;SDS011;10172;42.054;24.546;2024-02-23T06:38:24;29.13;;;19.98;;
20022;SDS011;10172;42.054;24.546;2024-02-23T06:40:49;29.20;;;18.02;;
20022;SDS011;10172;42.054;24.546;2024-02-23T06:43:15;28.88;;;17.80;;
20022;SDS011;10172;42.054;24.546;2024-02-23T06:45:40;30.52;;;19.75;;
20022;SDS011;10172;42.054;24.546;2024-02-23T06:48:06;27.33;;;19.70;;
20022;SDS011;10172;42.054;24.546;2024-02-23T06:50:32;27.58;;;18.75;;
20022;SDS011;10172;42.054;24.546;2024-02-23T06:52:57;26.20;;;16.95;;
20022;SDS011;10172;42.054;24.546;2024-02-23T06:55:22;23.88;;;16.25;;
20022;SDS011;10172;42.054;24.546;2024-02-23T06:57:48;24.25;;;16.55;;
20022;SDS011;10172;42.054;24.546;2024-02-23T07:00:13;22.05;;;14.45;;
20022;SDS011;10172;42.054;24.546;2024-02-23T07:02:39;20.73;;;14.82;;
20022;SDS011;10172;42.054;24.546;2024-02-23T07:05:05;22.13;;;15.48;;
20022;SDS011;10172;42.054;24.546;2024-02-23T07:07:31;20.13;;;14.38;;
20022;SDS011;10172;42.054;24.546;2024-02-23T07:09:58;21.80;;;14.48;;
20022;SDS011;10172;42.054;24.546;2024-02-23T07:12:26;22.00;;;15.18;;
20022;SDS011;10172;42.054;24.546;2024-02-23T07:14:53;18.85;;;13.73;;
20022;SDS011;10172;42.054;24.546;2024-02-23T07:17:22;20.30;;;14.43;;
20022;SDS011;10172;42.054;24.546;2024-02-23T07:19:47;19.88;;;14.25;;
20022;SDS011;10172;42.054;24.546;2024-02-23T07:22:13;20.23;;;14.63;;
20022;SDS011;10172;42.054;24.546;2024-02-23T07:24:39;20.55;;;14.82;;
20022;SDS011;10172;42.054;24.546;2024-02-23T07:27:05;19.08;;;14.25;;
20022;SDS011;10172;42.054;24.546;2024-02-23T07:29:31;20.42;;;14.60;;
20022;SDS011;10172;42.054;24.546;2024-02-23T07:31:56;21.42;;;15.25;;
20022;SDS011;10172;42.054;24.546;2024-02-23T07:34:21;20.30;;;15.27;;
20022;SDS011;10172;42.054;24.546;2024-02-23T07:36:47;22.52;;;16.55;;
20022;SDS011;10172;42.054;24.546;2024-02-23T07:39:13;24.73;;;17.73;;
20022;SDS011;10172;42.054;24.546;2024-02-23T07:41:38;22.33;;;16.42;;
20022;SDS011;10172;42.054;24.546;2024-02-23T07:44:03;25.55;;;18.15;;
20022;SDS011;10172;42.054;24.546;2024-02-23T07:46:29;27.73;;;20.27;;
20022;SDS011;10172;42.054;24.546;2024-02-23T07:48:54;25.52;;;18.58;;
20022;SDS011;10172;42.054;24.546;2024-02-23T07:51:19;21.35;;;16.58;;
20022;SDS011;10172;42.054;24.546;2024-02-23T07:53:45;23.27;;;15.52;;
20022;SDS011;10172;42.054;24.546;2024-02-23T07:56:10;19.95;;;14.40;;
20022;SDS011;10172;42.054;24.546;2024-02-23T07:58:37;17.23;;;13.25;;
20022;SDS011;10172;42.054;24.546;2024-02-23T08:01:03;19.13;;;13.70;;
20022;SDS011;10172;42.054;24.546;2024-02-23T08:03:29;18.58;;;12.57;;
20022;SDS011;10172;42.054;24.546;2024-02-23T08:05:54;17.17;;;12.82;;
20022;SDS011;10172;42.054;24.546;2024-02-23T08:08:20;19.98;;;14.93;;
20022;SDS011;10172;42.054;24.546;2024-02-23T08:10:47;24.95;;;15.13;;
20022;SDS011;10172;42.054;24.546;2024-02-23T08:13:13;25.17;;;16.88;;
20022;SDS011;10172;42.054;24.546;2024-02-23T08:15:38;23.63;;;16.40;;
20022;SDS011;10172;42.054;24.546;2024-02-23T08:18:03;19.75;;;15.10;;
20022;SDS011;10172;42.054;24.546;2024-02-23T08:20:29;20.58;;;15.30;;
20022;SDS011;10172;42.054;24.546;2024-02-23T08:22:55;21.65;;;13.90;;
20022;SDS011;10172;42.054;24.546;2024-02-23T08:25:20;21.40;;;15.85;;
20022;SDS011;10172;42.054;24.546;2024-02-23T08:27:46;23.90;;;16.63;;
20022;SDS011;10172;42.054;24.546;2024-02-23T08:30:13;43.15;;;29.70;;
20022;SDS011;10172;42.054;24.546;2024-02-23T08:32:39;31.20;;;19.95;;
20022;SDS011;10172;42.054;24.546;2024-02-23T08:35:05;22.73;;;16.40;;
20022;SDS011;10172;42.054;24.546;2024-02-23T08:37:30;21.83;;;14.73;;
20022;SDS011;10172;42.054;24.546;2024-02-23T08:39:56;22.77;;;16.60;;
20022;SDS011;10172;42.054;24.546;2024-02-23T08:42:21;23.48;;;16.75;;
20022;SDS011;10172;42.054;24.546;2024-02-23T08:44:47;22.38;;;16.05;;
20022;SDS011;10172;42.054;24.546;2024-02-23T08:47:12;23.08;;;16.20;;
20022;SDS011;10172;42.054;24.546;2024-02-23T08:49:38;21.80;;;15.82;;
20022;SDS011;10172;42.054;24.546;2024-02-23T08:52:03;20.45;;;15.38;;
20022;SDS011;10172;42.054;24.546;2024-02-23T08:54:29;24.15;;;17.70;;
20022;SDS011;10172;42.054;24.546;2024-02-23T08:56:55;24.45;;;16.63;;
20022;SDS011;10172;42.054;24.546;2024-02-23T08:59:20;20.67;;;15.80;;
20022;SDS011;10172;42.054;24.546;2024-02-23T09:01:46;21.02;;;16.63;;
20022;SDS011;10172;42.054;24.546;2024-02-23T09:04:12;22.13;;;15.88;;
20022;SDS011;10172;42.054;24.546;2024-02-23T09:06:37;21.55;;;15.70;;
20022;SDS011;10172;42.054;24.546;2024-02-23T09:09:03;20.65;;;16.05;;
20022;SDS011;10172;42.054;24.546;2024-02-23T09:11:28;23.88;;;16.63;;
20022;SDS011;10172;42.054;24.546;2024-02-23T09:13:53;20.50;;;15.00;;
20022;SDS011;10172;42.054;24.546;2024-02-23T09:16:19;19.33;;;14.93;;
20022;SDS011;10172;42.054;24.546;2024-02-23T09:18:45;24.58;;;16.15;;
20022;SDS011;10172;42.054;24.546;2024-02-23T09:21:11;18.33;;;15.18;;
20022;SDS011;10172;42.054;24.546;2024-02-23T09:23:36;19.73;;;15.18;;
20022;SDS011;10172;42.054;24.546;2024-02-23T09:26:08;25.10;;;15.77;;
20022;SDS011;10172;42.054;24.546;2024-02-23T09:28:35;21.52;;;15.55;;
20022;SDS011;10172;42.054;24.546;2024-02-23T09:31:00;22.17;;;15.57;;
20022;SDS011;10172;42.054;24.546;2024-02-23T09:33:26;21.63;;;16.15;;
20022;SDS011;10172;42.054;24.546;2024-02-23T09:35:51;21.38;;;15.52;;
20022;SDS011;10172;42.054;24.546;2024-02-23T09:38:17;18.90;;;14.55;;
20022;SDS011;10172;42.054;24.546;2024-02-23T09:40:42;17.90;;;14.40;;
20022;SDS011;10172;42.054;24.546;2024-02-23T09:43:07;18.67;;;14.13;;
20022;SDS011;10172;42.054;24.546;2024-02-23T09:45:34;18.13;;;14.15;;
20022;SDS011;10172;42.054;24.546;2024-02-23T09:47:59;19.30;;;14.80;;
20022;SDS011;10172;42.054;24.546;2024-02-23T09:50:28;17.85;;;13.23;;
20022;SDS011;10172;42.054;24.546;2024-02-23T09:52:55;17.90;;;14.27;;
20022;SDS011;10172;42.054;24.546;2024-02-23T09:55:23;18.08;;;13.77;;
20022;SDS011;10172;42.054;24.546;2024-02-23T09:57:50;18.35;;;12.95;;
20022;SDS011;10172;42.054;24.546;2024-02-23T10:00:19;16.13;;;12.45;;
20022;SDS011;10172;42.054;24.546;2024-02-23T10:02:45;16.35;;;12.55;;
20022;SDS011;10172;42.054;24.546;2024-02-23T10:05:11;16.45;;;12.27;;
20022;SDS011;10172;42.054;24.546;2024-02-23T10:07:39;18.67;;;13.82;;
20022;SDS011;10172;42.054;24.546;2024-02-23T10:10:07;18.27;;;13.00;;
20022;SDS011;10172;42.054;24.546;2024-02-23T10:12:34;16.38;;;12.45;;
20022;SDS011;10172;42.054;24.546;2024-02-23T10:15:00;16.20;;;12.48;;
20022;SDS011;10172;42.054;24.546;2024-02-23T10:17:28;17.73;;;13.45;;
20022;SDS011;10172;42.054;24.546;2024-02-23T10:19:55;15.20;;;12.18;;
20022;SDS011;10172;42.054;24.546;2024-02-23T10:22:22;15.25;;;11.52;;
20022;SDS011;10172;42.054;24.546;2024-02-23T10:24:50;13.07;;;11.63;;
20022;SDS011;10172;42.054;24.546;2024-02-23T10:27:16;14.38;;;12.00;;
20022;SDS011;10172;42.054;24.546;2024-02-23T10:29:42;14.65;;;12.05;;
20022;SDS011;10172;42.054;24.546;2024-02-23T10:32:07;16.75;;;12.20;;
20022;SDS011;10172;42.054;24.546;2024-02-23T10:34:39;28.88;;;15.88;;
20022;SDS011;10172;42.054;24.546;2024-02-23T10:37:08;42.13;;;21.20;;
20022;SDS011;10172;42.054;24.546;2024-02-23T10:39:35;14.88;;;10.90;;
20022;SDS011;10172;42.054;24.546;2024-02-23T10:42:03;28.73;;;15.73;;
20022;SDS011;10172;42.054;24.546;2024-02-23T10:44:30;13.40;;;10.18;;
20022;SDS011;10172;42.054;24.546;2024-02-23T10:46:55;11.48;;;9.23;;
20022;SDS011;10172;42.054;24.546;2024-02-23T10:49:24;12.43;;;10.07;;
20022;SDS011;10172;42.054;24.546;2024-02-23T10:51:52;13.40;;;9.15;;
20022;SDS011;10172;42.054;24.546;2024-02-23T10:54:21;13.15;;;9.35;;
20022;SDS011;10172;42.054;24.546;2024-02-23T10:56:48;12.85;;;8.68;;
20022;SDS011;10172;42.054;24.546;2024-02-23T10:59:15;11.00;;;9.15;;
20022;SDS011;10172;42.054;24.546;2024-02-23T11:01:43;14.60;;;9.18;;
20022;SDS011;10172;42.054;24.546;2024-02-23T11:04:11;11.38;;;8.68;;
20022;SDS011;10172;42.054;24.546;2024-02-23T11:06:37;13.13;;;9.45;;
20022;SDS011;10172;42.054;24.546;2024-02-23T11:09:06;11.27;;;9.38;;
20022;SDS011;10172;42.054;24.546;2024-02-23T11:11:36;12.60;;;9.23;;
20022;SDS011;10172;42.054;24.546;2024-02-23T11:14:02;13.23;;;8.70;;
20022;SDS011;10172;42.054;24.546;2024-02-23T11:16:28;13.00;;;9.00;;
20022;SDS011;10172;42.054;24.546;2024-02-23T11:19:07;14.50;;;9.60;;
20022;SDS011;10172;42.054;24.546;2024-02-23T11:21:36;12.10;;;8.98;;
20022;SDS011;10172;42.054;24.546;2024-02-23T11:24:05;13.43;;;9.35;;
20022;SDS011;10172;42.054;24.546;2024-02-23T11:26:32;11.32;;;8.57;;
20022;SDS011;10172;42.054;24.546;2024-02-23T11:29:09;11.23;;;9.00;;
20022;SDS011;10172;42.054;24.546;2024-02-23T11:31:35;11.20;;;9.00;;
20022;SDS011;10172;42.054;24.546;2024-02-23T11:34:00;10.65;;;8.70;;
20022;SDS011;10172;42.054;24.546;2024-02-23T11:36:29;12.63;;;8.18;;
20022;SDS011;10172;42.054;24.546;2024-02-23T11:38:57;10.38;;;8.13;;
20022;SDS011;10172;42.054;24.546;2024-02-23T11:41:24;13.77;;;9.10;;
20022;SDS011;10172;42.054;24.546;2024-02-23T11:43:50;11.07;;;8.43;;
20022;SDS011;10172;42.054;24.546;2024-02-23T11:46:17;11.20;;;8.40;;
20022;SDS011;10172;42.054;24.546;2024-02-23T11:48:43;10.63;;;8.50;;
20022;SDS011;10172;42.054;24.546;2024-02-23T11:51:18;11.40;;;8.15;;
20022;SDS011;10172;42.054;24.546;2024-02-23T11:53:43;12.82;;;8.20;;
20022;SDS011;10172;42.054;24.546;2024-02-23T11:56:10;11.07;;;8.65;;
20022;SDS011;10172;42.054;24.546;2024-02-23T11:58:36;11.27;;;7.95;;
20022;SDS011;10172;42.054;24.546;2024-02-23T12:01:02;14.35;;;8.63;;
20022;SDS011;10172;42.054;24.546;2024-02-23T12:03:28;13.23;;;8.00;;
20022;SDS011;10172;42.054;24.546;2024-02-23T12:05:56;12.23;;;8.15;;
20022;SDS011;10172;42.054;24.546;2024-02-23T12:08:23;12.15;;;9.00;;
20022;SDS011;10172;42.054;24.546;2024-02-23T12:10:51;11.98;;;7.85;;
20022;SDS011;10172;42.054;24.546;2024-02-23T12:13:17;11.10;;;8.10;;
20022;SDS011;10172;42.054;24.546;2024-02-23T12:15:42;16.73;;;8.23;;
20022;SDS011;10172;42.054;24.546;2024-02-23T12:18:10;13.30;;;8.38;;
20022;SDS011;10172;42.054;24.546;2024-02-23T12:20:35;20.75;;;8.30;;
20022;SDS011;10172;42.054;24.546;2024-02-23T12:23:01;12.38;;;7.50;;
20022;SDS011;10172;42.054;24.546;2024-02-23T12:25:26;11.68;;;7.97;;
20022;SDS011;10172;42.054;24.546;2024-02-23T12:27:55;15.40;;;7.97;;
20022;SDS011;10172;42.054;24.546;2024-02-23T12:30:22;13.25;;;7.57;;
20022;SDS011;10172;42.054;24.546;2024-02-23T12:32:47;11.05;;;7.00;;
20022;SDS011;10172;42.054;24.546;2024-02-23T12:35:13;10.57;;;7.95;;
20022;SDS011;10172;42.054;24.546;2024-02-23T12:37:39;9.20;;;7.05;;
20022;SDS011;10172;42.054;24.546;2024-02-23T12:40:06;14.95;;;7.50;;
20022;SDS011;10172;42.054;24.546;2024-02-23T12:42:32;18.52;;;8.57;;
20022;SDS011;10172;42.054;24.546;2024-02-23T12:44:57;12.88;;;8.57;;
20022;SDS011;10172;42.054;24.546;2024-02-23T12:47:23;11.82;;;8.25;;
20022;SDS011;10172;42.054;24.546;2024-02-23T12:49:48;16.95;;;8.57;;
20022;SDS011;10172;42.054;24.546;2024-02-23T12:52:13;22.52;;;8.93;;
20022;SDS011;10172;42.054;24.546;2024-02-23T12:54:39;12.43;;;9.13;;
20022;SDS011;10172;42.054;24.546;2024-02-23T12:57:04;16.13;;;8.82;;
20022;SDS011;10172;42.054;24.546;2024-02-23T12:59:30;20.10;;;9.45;;
20022;SDS011;10172;42.054;24.546;2024-02-23T13:01:55;10.88;;;8.20;;
20022;SDS011;10172;42.054;24.546;2024-02-23T13:04:21;11.63;;;8.50;;
20022;SDS011;10172;42.054;24.546;2024-02-23T13:06:46;19.05;;;8.88;;
20022;SDS011;10172;42.054;24.546;2024-02-23T13:09:12;11.80;;;8.45;;
20022;SDS011;10172;42.054;24.546;2024-02-23T13:11:39;12.15;;;8.52;;
20022;SDS011;10172;42.054;24.546;2024-02-23T13:14:05;25.50;;;9.50;;
20022;SDS011;10172;42.054;24.546;2024-02-23T13:16:31;20.77;;;9.65;;
20022;SDS011;10172;42.054;24.546;2024-02-23T13:18:56;10.32;;;7.95;;
20022;SDS011;10172;42.054;24.546;2024-02-23T13:21:21;11.73;;;8.73;;
20022;SDS011;10172;42.054;24.546;2024-02-23T13:23:48;17.90;;;9.65;;
20022;SDS011;10172;42.054;24.546;2024-02-23T13:26:14;17.30;;;9.68;;
20022;SDS011;10172;42.054;24.546;2024-02-23T13:28:41;12.98;;;8.95;;
20022;SDS011;10172;42.054;24.546;2024-02-23T13:31:07;12.98;;;9.57;;
20022;SDS011;10172;42.054;24.546;2024-02-23T13:33:32;14.95;;;9.57;;
20022;SDS011;10172;42.054;24.546;2024-02-23T13:35:57;12.98;;;9.43;;
20022;SDS011;10172;42.054;24.546;2024-02-23T13:38:23;14.05;;;10.32;;
20022;SDS011;10172;42.054;24.546;2024-02-23T13:40:49;13.45;;;10.27;;
20022;SDS011;10172;42.054;24.546;2024-02-23T13:43:15;13.30;;;10.73;;
20022;SDS011;10172;42.054;24.546;2024-02-23T13:45:50;15.70;;;10.13;;
20022;SDS011;10172;42.054;24.546;2024-02-23T13:48:16;12.93;;;10.38;;
20022;SDS011;10172;42.054;24.546;2024-02-23T13:50:46;14.63;;;11.02;;
20022;SDS011;10172;42.054;24.546;2024-02-23T13:53:12;13.77;;;9.88;;
20022;SDS011;10172;42.054;24.546;2024-02-23T13:55:38;13.60;;;9.93;;
20022;SDS011;10172;42.054;24.546;2024-02-23T13:58:04;18.73;;;9.57;;
20022;SDS011;10172;42.054;24.546;2024-02-23T14:00:29;24.17;;;10.82;;
20022;SDS011;10172;42.054;24.546;2024-02-23T14:02:55;15.73;;;9.30;;
20022;SDS011;10172;42.054;24.546;2024-02-23T14:05:20;14.80;;;10.50;;